Time;durP1;ratioP1;P1;durP2;ratioP2;P2;SDS_P1;SDS_P2;PMS_P1;PMS_P2;Temp;Humidity;BMP_temperature;BMP_pressure;BME280_temperature;BME280_humidity;BME280_pressure;Samples;Min_cycle;Max_cycle;Signal;HPM_P1;HPM_P2
2021/03/13 00:00:28;;;;;;;98.28;51.30;;;154.20;2252.80;;;;;;5005087;28;20022;-72
2021/03/13 00:02:53;;;;;;;120.25;65.88;;;154.20;2252.80;;;;;;5005020;28;20450;-71
2021/03/13 00:05:23;;;;;;;102.93;55.47;;;154.30;2252.80;;;;;;5004423;28;20052;-73
2021/03/13 00:07:50;;;;;;;118.13;63.42;;;154.30;2252.80;;;;;;5005553;28;20499;-70
2021/03/13 00:10:16;;;;;;;145.35;73.72;;;154.40;2252.80;;;;;;5004615;28;20041;-71
2021/03/13 00:12:42;;;;;;;207.68;99.32;;;154.30;2252.80;;;;;;5007022;28;20033;-74
2021/03/13 00:15:08;;;;;;;162.68;81.88;;;154.30;2252.80;;;;;;4996566;28;20565;-69
2021/03/13 00:17:34;;;;;;;101.10;54.85;;;154.40;2252.80;;;;;;4993569;28;20034;-69
2021/03/13 00:20:00;;;;;;;159.48;80.03;;;154.40;2252.80;;;;;;4998326;28;20097;-70
2021/03/13 00:22:26;;;;;;;122.05;64.10;;;154.50;2252.80;;;;;;4996473;28;20026;-70
2021/03/13 00:24:51;;;;;;;109.70;60.08;;;154.50;2252.80;;;;;;5002012;28;20042;-73
2021/03/13 00:27:17;;;;;;;94.28;50.67;;;154.50;2252.80;;;;;;5009377;28;20030;-69
2021/03/13 00:29:43;;;;;;;98.32;52.67;;;179.20;2252.80;;;;;;5012198;28;20083;-72
2021/03/13 00:32:08;;;;;;;99.95;53.83;;;179.20;2252.80;;;;;;5003054;28;20080;-71
2021/03/13 00:34:34;;;;;;;109.40;58.25;;;179.30;2227.20;;;;;;5012440;28;20048;-69
2021/03/13 00:37:00;;;;;;;92.30;51.95;;;179.30;2227.20;;;;;;5013084;28;20479;-71
2021/03/13 00:39:28;;;;;;;101.72;55.75;;;179.40;2227.20;;;;;;5012500;28;20026;-70
2021/03/13 00:41:54;;;;;;;111.45;62.40;;;179.40;2227.20;;;;;;5012355;28;20029;-71
2021/03/13 00:44:19;;;;;;;116.03;63.50;;;179.40;2227.20;;;;;;5012435;28;20359;-71
2021/03/13 00:46:45;;;;;;;137.45;71.10;;;179.40;2227.20;;;;;;5012549;28;20014;-71
2021/03/13 00:49:11;;;;;;;105.38;57.17;;;179.40;2201.60;;;;;;5012431;28;20475;-70
2021/03/13 00:51:37;;;;;;;101.68;53.65;;;179.50;2201.60;;;;;;5012741;28;20367;-69
2021/03/13 00:54:03;;;;;;;79.78;46.25;;;179.50;2201.60;;;;;;5012815;28;20079;-72
2021/03/13 00:56:28;;;;;;;76.05;44.33;;;179.50;2201.60;;;;;;5012449;28;20034;-71
2021/03/13 00:58:54;;;;;;;104.13;56.90;;;179.60;2176.00;;;;;;5012097;28;20025;-71
2021/03/13 01:01:20;;;;;;;86.03;45.00;;;179.60;2201.60;;;;;;5012373;28;20392;-71
2021/03/13 01:03:45;;;;;;;84.53;47.15;;;179.50;2201.60;;;;;;5012527;28;20022;-71
2021/03/13 01:06:11;;;;;;;101.32;52.45;;;179.50;2227.20;;;;;;5011869;28;20030;-72
2021/03/13 01:08:37;;;;;;;107.90;53.25;;;179.50;2252.80;;;;;;5012187;28;20134;-69
2021/03/13 01:11:03;;;;;;;88.10;46.75;;;179.50;2252.80;;;;;;5011985;28;20030;-70
2021/03/13 01:13:28;;;;;;;91.15;46.75;;;179.60;2252.80;;;;;;5009804;28;20068;-70
2021/03/13 01:15:54;;;;;;;95.90;50.70;;;179.60;2252.80;;;;;;5011759;28;20026;-71
2021/03/13 01:18:20;;;;;;;92.90;49.70;;;179.70;2252.80;;;;;;5011806;28;20555;-71
2021/03/13 01:20:48;;;;;;;99.15;53.15;;;179.70;2252.80;;;;;;5011627;28;20022;-70
2021/03/13 01:23:14;;;;;;;111.10;53.28;;;179.70;2252.80;;;;;;5011816;28;20018;-70
2021/03/13 01:25:40;;;;;;;107.15;53.05;;;179.50;2252.80;;;;;;5012144;28;20717;-71
2021/03/13 01:28:06;;;;;;;136.48;61.53;;;179.50;2252.80;;;;;;5011805;28;20037;-70
2021/03/13 01:30:32;;;;;;;136.10;59.78;;;179.50;2252.80;;;;;;5011264;28;20033;-71
2021/03/13 01:32:58;;;;;;;86.80;45.05;;;179.50;2252.80;;;;;;5012109;28;20057;-71
2021/03/13 01:35:27;;;;;;;102.00;45.75;;;179.40;2252.80;;;;;;5011345;28;20026;-70
2021/03/13 01:37:54;;;;;;;74.80;41.10;;;179.50;2252.80;;;;;;5011675;28;20018;-71
2021/03/13 01:40:20;;;;;;;77.70;41.33;;;179.60;2252.80;;;;;;5010690;28;20046;-70
2021/03/13 01:42:47;;;;;;;83.95;42.15;;;179.70;2252.80;;;;;;5011578;28;20014;-70
2021/03/13 01:45:16;;;;;;;77.68;41.50;;;179.70;2252.80;;;;;;5011261;28;20026;-71
2021/03/13 01:47:43;;;;;;;60.20;34.25;;;179.70;2252.80;;;;;;5012013;28;20398;-71
2021/03/13 01:50:14;;;;;;;58.17;33.03;;;179.70;2252.80;;;;;;5010984;28;20387;-71
2021/03/13 01:52:40;;;;;;;68.55;38.28;;;179.80;2252.80;;;;;;5011918;28;20041;-70
2021/03/13 01:55:12;;;;;;;61.53;35.53;;;179.80;2252.80;;;;;;5011224;28;20022;-71
2021/03/13 01:57:38;;;;;;;67.47;38.38;;;179.80;2252.80;;;;;;5005644;28;20018;-71
2021/03/13 02:00:25;;;;;;;70.43;40.20;;;179.70;2252.80;;;;;;5010827;28;20049;-71
2021/03/13 02:02:50;;;;;;;57.47;34.65;;;179.70;2252.80;;;;;;5009961;28;20069;-73
2021/03/13 02:05:48;;;;;;;81.38;39.78;;;179.70;2252.80;;;;;;5011061;28;20057;-71
2021/03/13 02:08:48;;;;;;;90.93;45.15;;;179.70;2252.80;;;;;;5003645;28;20038;-71
2021/03/13 02:11:51;;;;;;;108.40;50.25;;;179.70;2252.80;;;;;;5003180;28;20018;-77
2021/03/13 02:14:31;;;;;;;139.48;56.95;;;179.70;2252.80;;;;;;5010728;28;20033;-71
2021/03/13 02:17:18;;;;;;;104.57;48.35;;;179.70;2252.80;;;;;;5010275;28;20022;-71
2021/03/13 02:19:55;;;;;;;94.03;44.80;;;179.70;2252.80;;;;;;5010324;28;20050;-71
2021/03/13 02:22:24;;;;;;;102.20;44.33;;;179.70;2252.80;;;;;;5010944;28;20390;-70
2021/03/13 02:25:15;;;;;;;111.05;45.75;;;179.70;2252.80;;;;;;5011101;28;20475;-72
2021/03/13 02:28:19;;;;;;;132.90;54.25;;;179.60;2252.80;;;;;;5012071;28;20483;-72
2021/03/13 02:30:45;;;;;;;151.82;59.15;;;179.60;2252.80;;;;;;5002930;28;20036;-70
2021/03/13 02:33:16;;;;;;;132.80;49.75;;;179.60;2252.80;;;;;;5011878;28;20365;-71
2021/03/13 02:35:46;;;;;;;129.02;48.90;;;179.50;2252.80;;;;;;5012081;28;20038;-72
2021/03/13 02:38:37;;;;;;;132.32;51.35;;;179.50;2252.80;;;;;;5011497;28;20108;-71
2021/03/13 02:41:10;;;;;;;121.28;44.72;;;179.50;2252.80;;;;;;5011852;28;20387;-71
2021/03/13 02:43:39;;;;;;;125.32;48.90;;;179.50;2252.80;;;;;;5012234;28;20064;-72
2021/03/13 02:46:06;;;;;;;101.38;41.25;;;179.40;2252.80;;;;;;5011799;28;20022;-72
2021/03/13 02:48:32;;;;;;;106.88;41.58;;;179.40;2252.80;;;;;;5011482;28;20471;-72
2021/03/13 02:51:01;;;;;;;124.47;49.20;;;179.50;2252.80;;;;;;5010775;28;20075;-71
2021/03/13 02:53:27;;;;;;;112.80;44.97;;;179.50;2252.80;;;;;;5011684;28;20025;-71
2021/03/13 02:55:54;;;;;;;94.97;39.78;;;179.50;2252.80;;;;;;5011690;28;20024;-71
2021/03/13 02:58:22;;;;;;;100.32;39.83;;;179.60;2252.80;;;;;;5011480;28;20021;-70
2021/03/13 03:00:49;;;;;;;95.13;40.63;;;179.60;2252.80;;;;;;5011231;28;20479;-70
2021/03/13 03:03:16;;;;;;;92.50;41.63;;;179.50;2252.80;;;;;;5011584;28;20032;-71
2021/03/13 03:05:43;;;;;;;88.40;38.00;;;179.60;2252.80;;;;;;5011457;28;20030;-70
2021/03/13 03:08:10;;;;;;;79.18;35.80;;;179.60;2252.80;;;;;;5011540;28;20504;-73
2021/03/13 03:10:40;;;;;;;78.50;35.38;;;179.60;2252.80;;;;;;5010996;28;20029;-70
2021/03/13 03:13:07;;;;;;;72.10;32.80;;;179.60;2252.80;;;;;;5011667;28;20068;-70
2021/03/13 03:15:34;;;;;;;75.38;34.15;;;179.60;2252.80;;;;;;5011114;28;20025;-70
2021/03/13 03:18:05;;;;;;;66.72;31.55;;;179.60;2252.80;;;;;;5011230;28;20030;-70
2021/03/13 03:20:32;;;;;;;70.07;34.95;;;179.60;2252.80;;;;;;5010697;28;20040;-71
2021/03/13 03:22:59;;;;;;;77.95;36.28;;;179.60;2252.80;;;;;;5011345;28;20026;-72
2021/03/13 03:25:25;;;;;;;86.90;40.78;;;179.60;2252.80;;;;;;5011351;28;20105;-71
2021/03/13 03:27:51;;;;;;;83.68;38.13;;;179.50;2252.80;;;;;;5010818;28;20104;-71
2021/03/13 03:30:21;;;;;;;87.70;40.33;;;179.60;2252.80;;;;;;5010604;28;20025;-70
2021/03/13 03:32:47;;;;;;;88.10;39.43;;;179.50;2252.80;;;;;;5011555;28;20033;-70
2021/03/13 03:35:14;;;;;;;109.25;44.58;;;179.60;2252.80;;;;;;5011006;28;20354;-70
2021/03/13 03:37:41;;;;;;;100.97;45.15;;;179.60;2252.80;;;;;;5010774;28;20026;-73
2021/03/13 03:40:07;;;;;;;103.88;45.33;;;179.60;2252.80;;;;;;5010877;28;20034;-72
2021/03/13 03:42:40;;;;;;;119.40;48.92;;;179.60;2252.80;;;;;;5011020;28;20039;-71
2021/03/13 03:45:08;;;;;;;105.82;43.67;;;179.60;2252.80;;;;;;5010816;28;20033;-71
2021/03/13 03:47:35;;;;;;;124.10;48.42;;;179.50;2252.80;;;;;;5009376;28;20036;-71
2021/03/13 03:50:02;;;;;;;61.95;30.23;;;179.60;2252.80;;;;;;5010778;28;20132;-71
2021/03/13 03:52:30;;;;;;;39.35;23.13;;;179.50;2252.80;;;;;;5010697;28;20091;-72
2021/03/13 03:54:57;;;;;;;35.67;22.92;;;179.40;2252.80;;;;;;5010745;28;20080;-71
2021/03/13 03:57:23;;;;;;;34.03;22.70;;;179.30;2252.80;;;;;;5010708;28;20050;-72
2021/03/13 03:59:51;;;;;;;34.03;22.73;;;179.20;2252.80;;;;;;5010091;28;20044;-72
2021/03/13 04:02:20;;;;;;;39.28;25.15;;;179.20;2252.80;;;;;;5010342;28;20045;-73
2021/03/13 04:04:49;;;;;;;42.33;27.45;;;179.20;2252.80;;;;;;5010218;28;20411;-72
2021/03/13 04:07:16;;;;;;;37.97;24.90;;;179.20;2252.80;;;;;;5010860;28;20022;-71
2021/03/13 04:09:44;;;;;;;34.70;22.83;;;154.50;2252.80;;;;;;5010463;28;20033;-71
2021/03/13 04:12:12;;;;;;;39.00;24.42;;;179.20;2252.80;;;;;;5010374;28;20022;-72
2021/03/13 04:14:39;;;;;;;46.50;27.70;;;179.20;2252.80;;;;;;5010762;28;20037;-72
2021/03/13 04:17:05;;;;;;;30.35;20.20;;;179.20;2252.80;;;;;;5010402;28;20029;-72
2021/03/13 04:19:32;;;;;;;28.10;18.92;;;179.20;2252.80;;;;;;5009906;28;20065;-72
2021/03/13 04:21:59;;;;;;;29.08;18.95;;;179.20;2252.80;;;;;;5010629;28;20026;-71
2021/03/13 04:24:26;;;;;;;38.00;22.80;;;179.20;2252.80;;;;;;5010394;28;20018;-71
2021/03/13 04:26:53;;;;;;;32.00;20.35;;;179.20;2252.80;;;;;;5010704;28;20385;-71
2021/03/13 04:29:19;;;;;;;27.80;18.63;;;179.30;2252.80;;;;;;5009870;28;20022;-71
2021/03/13 04:31:46;;;;;;;28.08;18.63;;;179.30;2252.80;;;;;;5010667;28;20360;-71
2021/03/13 04:34:13;;;;;;;28.85;18.65;;;179.30;2252.80;;;;;;5010316;28;20026;-72
2021/03/13 04:36:39;;;;;;;29.52;19.08;;;179.30;2252.80;;;;;;5010245;28;20057;-71
2021/03/13 04:39:06;;;;;;;36.05;21.48;;;179.30;2252.80;;;;;;5010249;28;20022;-72
2021/03/13 04:41:33;;;;;;;35.28;22.17;;;179.20;2252.80;;;;;;5010102;28;20026;-71
2021/03/13 04:44:00;;;;;;;41.60;24.15;;;179.20;2252.80;;;;;;5010593;28;20022;-71
2021/03/13 04:46:26;;;;;;;43.75;25.02;;;179.20;2252.80;;;;;;5010230;28;20026;-72
2021/03/13 04:48:52;;;;;;;40.55;22.98;;;154.50;2252.80;;;;;;5009746;28;20034;-71
2021/03/13 04:51:19;;;;;;;39.17;22.83;;;154.50;2252.80;;;;;;5010385;28;20483;-71
2021/03/13 04:53:46;;;;;;;46.25;25.08;;;154.50;2252.80;;;;;;5010417;28;20053;-71
2021/03/13 04:56:12;;;;;;;29.55;18.67;;;154.50;2252.80;;;;;;5009923;28;20033;-71
2021/03/13 04:58:38;;;;;;;25.75;17.20;;;154.50;2252.80;;;;;;5009814;28;20378;-72
2021/03/13 05:01:04;;;;;;;32.63;18.98;;;179.20;2252.80;;;;;;5001890;28;20023;-72
2021/03/13 05:03:30;;;;;;;25.70;16.50;;;179.20;2252.80;;;;;;5006905;28;20029;-71
2021/03/13 05:05:55;;;;;;;23.15;17.00;;;179.20;2252.80;;;;;;5010172;28;20033;-70
2021/03/13 05:08:21;;;;;;;31.00;18.42;;;179.20;2252.80;;;;;;5009570;28;20029;-70
2021/03/13 05:10:47;;;;;;;27.73;17.00;;;179.20;2252.80;;;;;;5010129;28;20029;-70
2021/03/13 05:13:13;;;;;;;25.85;17.50;;;179.30;2252.80;;;;;;5010042;28;20022;-70
2021/03/13 05:15:38;;;;;;;30.15;18.02;;;179.30;2252.80;;;;;;5012682;28;20029;-71
2021/03/13 05:18:04;;;;;;;25.77;16.50;;;179.30;2252.80;;;;;;5013436;28;20060;-71
2021/03/13 05:20:30;;;;;;;25.92;17.30;;;179.30;2252.80;;;;;;5012871;28;20132;-71
2021/03/13 05:22:56;;;;;;;26.05;18.27;;;179.40;2252.80;;;;;;5014139;28;20029;-72
2021/03/13 05:25:22;;;;;;;28.77;19.08;;;179.40;2252.80;;;;;;5013527;28;20042;-71
2021/03/13 05:27:48;;;;;;;27.83;18.75;;;179.40;2252.80;;;;;;5013321;28;20036;-72
2021/03/13 05:30:15;;;;;;;28.23;19.42;;;179.50;2252.80;;;;;;5012779;28;20022;-71
2021/03/13 05:32:41;;;;;;;26.13;18.35;;;179.40;2252.80;;;;;;5013180;28;20030;-71
2021/03/13 05:35:11;;;;;;;26.90;18.33;;;179.40;2252.80;;;;;;5013278;28;20040;-72
2021/03/13 05:37:37;;;;;;;25.65;17.80;;;179.40;2252.80;;;;;;5013630;28;20026;-70
2021/03/13 05:40:05;;;;;;;30.15;18.08;;;179.50;2252.80;;;;;;5012407;28;20030;-71
2021/03/13 05:42:32;;;;;;;27.45;18.20;;;179.50;2252.80;;;;;;5011755;28;20425;-71
2021/03/13 05:44:58;;;;;;;28.92;18.80;;;179.60;2252.80;;;;;;5013151;28;20022;-71
2021/03/13 05:47:26;;;;;;;25.90;17.70;;;179.50;2252.80;;;;;;5013235;28;20096;-71
2021/03/13 05:50:05;;;;;;;31.33;20.25;;;179.50;2252.80;;;;;;5012483;28;20033;-71
2021/03/13 05:52:33;;;;;;;30.08;19.70;;;179.40;2252.80;;;;;;5013044;28;20442;-71
2021/03/13 05:54:59;;;;;;;27.70;18.08;;;179.40;2252.80;;;;;;4999148;28;20034;-72
2021/03/13 05:57:25;;;;;;;29.60;18.42;;;179.30;2252.80;;;;;;5012974;28;20024;-72
2021/03/13 05:59:51;;;;;;;29.27;19.85;;;179.30;2252.80;;;;;;5011944;28;20030;-72
2021/03/13 06:02:20;;;;;;;29.00;18.90;;;179.30;2252.80;;;;;;5012928;28;20475;-72
2021/03/13 06:04:47;;;;;;;29.25;18.92;;;179.30;2252.80;;;;;;5012888;28;20068;-71
2021/03/13 06:07:21;;;;;;;28.65;18.98;;;179.40;2252.80;;;;;;5012665;28;20370;-72
2021/03/13 06:09:54;;;;;;;26.63;17.98;;;179.40;2252.80;;;;;;5012039;28;20133;-72
2021/03/13 06:12:21;;;;;;;30.73;19.05;;;179.40;2252.80;;;;;;5012502;28;20100;-71
2021/03/13 06:14:51;;;;;;;27.13;17.85;;;179.50;2252.80;;;;;;5012411;28;20030;-72
2021/03/13 06:17:18;;;;;;;26.23;17.50;;;179.50;2252.80;;;;;;5012403;28;20566;-71
2021/03/13 06:19:54;;;;;;;26.90;16.80;;;179.60;2252.80;;;;;;5011833;28;20037;-71
2021/03/13 06:22:41;;;;;;;23.92;16.08;;;179.70;2252.80;;;;;;5012376;28;20479;-74
2021/03/13 06:25:35;;;;;;;25.90;15.90;;;179.70;2252.80;;;;;;5012089;28;20022;-71
2021/03/13 06:28:19;;;;;;;22.58;14.48;;;179.70;2252.80;;;;;;5012201;28;20028;-70
2021/03/13 06:30:49;;;;;;;27.95;15.98;;;179.80;2252.80;;;;;;5012031;28;20026;-71
2021/03/13 06:33:19;;;;;;;22.65;14.13;;;179.90;2252.80;;;;;;5012012;28;20502;-71
2021/03/13 06:35:45;;;;;;;35.97;20.92;;;180.00;2252.80;;;;;;5010998;28;20042;-70
2021/03/13 06:38:18;;;;;;;77.75;35.05;;;180.00;2252.80;;;;;;5011633;28;20044;-71
2021/03/13 06:40:45;;;;;;;75.45;32.97;;;180.00;2252.80;;;;;;5011929;28;20407;-71
2021/03/13 06:43:28;;;;;;;56.67;27.77;;;180.10;2252.80;;;;;;5011531;28;20026;-71
2021/03/13 06:46:03;;;;;;;72.07;31.27;;;204.80;2252.80;;;;;;5012076;28;20049;-71
2021/03/13 06:48:36;;;;;;;73.18;30.85;;;204.80;2252.80;;;;;;5011314;28;20523;-72
2021/03/13 06:51:28;;;;;;;65.68;29.00;;;204.80;2252.80;;;;;;5011604;28;20116;-72
2021/03/13 06:54:12;;;;;;;42.35;23.27;;;204.80;2252.80;;;;;;5011790;28;20045;-72
2021/03/13 06:56:40;;;;;;;27.92;18.88;;;204.80;2252.80;;;;;;5011814;28;20014;-72
2021/03/13 06:59:35;;;;;;;52.67;31.65;;;204.90;2252.80;;;;;;5011740;28;20022;-72
2021/03/13 07:02:05;;;;;;;43.42;29.35;;;204.90;2252.80;;;;;;5011249;28;20022;-72
2021/03/13 07:04:49;;;;;;;38.40;26.10;;;204.80;2252.80;;;;;;5004209;28;20484;-73
2021/03/13 07:07:35;;;;;;;46.55;31.88;;;204.80;2252.80;;;;;;5008189;28;20104;-73
2021/03/13 07:10:03;;;;;;;50.35;32.08;;;180.10;2252.80;;;;;;5011249;28;20056;-73
2021/03/13 07:12:39;;;;;;;43.30;28.50;;;204.80;2252.80;;;;;;5011572;28;20096;-72
2021/03/13 07:15:18;;;;;;;45.92;30.38;;;204.80;2252.80;;;;;;5010942;28;20030;-72
2021/03/13 07:17:50;;;;;;;42.25;28.55;;;204.90;2252.80;;;;;;5011280;28;20025;-73
2021/03/13 07:20:21;;;;;;;30.52;22.40;;;205.00;2252.80;;;;;;5010572;28;20117;-73
2021/03/13 07:22:53;;;;;;;36.97;26.25;;;205.10;2252.80;;;;;;5011156;28;20237;-72
2021/03/13 07:25:21;;;;;;;42.00;29.85;;;205.20;2252.80;;;;;;5011266;28;20565;-72
2021/03/13 07:27:53;;;;;;;44.40;29.77;;;205.30;2252.80;;;;;;5011275;28;20252;-72
2021/03/13 07:30:19;;;;;;;52.35;35.00;;;205.40;2252.80;;;;;;5010241;28;20022;-72
2021/03/13 07:33:08;;;;;;;42.95;29.27;;;205.50;2252.80;;;;;;5010979;28;20124;-72
2021/03/13 07:35:37;;;;;;;66.97;38.78;;;205.60;2252.80;;;;;;5010969;28;20033;-72
2021/03/13 07:38:05;;;;;;;61.65;37.40;;;230.50;2252.80;;;;;;5010416;28;20356;-72
2021/03/13 07:40:34;;;;;;;55.85;35.30;;;230.70;2252.80;;;;;;5010299;28;20088;-72
2021/03/13 07:43:02;;;;;;;59.80;39.10;;;230.90;2252.80;;;;;;5010807;28;20025;-72
2021/03/13 07:45:28;;;;;;;45.63;31.67;;;231.10;2252.80;;;;;;5010871;28;20022;-71
2021/03/13 07:47:58;;;;;;;21.73;13.30;;;231.20;2252.80;;;;;;5010865;28;20422;-73
2021/03/13 07:50:24;;;;;;;28.85;19.20;;;231.20;2252.80;;;;;;5010341;28;20021;-72
2021/03/13 07:52:50;;;;;;;30.08;21.50;;;231.20;2252.80;;;;;;5010800;28;20030;-72
2021/03/13 07:55:18;;;;;;;27.70;19.85;;;231.30;2252.80;;;;;;5010649;28;20444;-72
2021/03/13 07:57:45;;;;;;;26.50;19.58;;;256.00;2252.80;;;;;;5010804;28;20050;-72
2021/03/13 08:00:12;;;;;;;25.88;18.20;;;256.00;2252.80;;;;;;5009835;28;20026;-73
2021/03/13 08:02:43;;;;;;;30.10;22.15;;;256.10;2252.80;;;;;;5010660;28;20026;-73
2021/03/13 08:05:15;;;;;;;28.58;19.30;;;256.20;2252.80;;;;;;5010357;28;20029;-72
2021/03/13 08:07:50;;;;;;;22.55;15.27;;;256.30;2252.80;;;;;;5010934;28;20034;-73
2021/03/13 08:10:51;;;;;;;30.00;20.67;;;256.30;2252.80;;;;;;5010371;28;20382;-72
2021/03/13 08:13:37;;;;;;;28.92;21.00;;;256.10;2252.80;;;;;;5010680;28;20135;-75
2021/03/13 08:16:32;;;;;;;67.05;37.30;;;231.30;2252.80;;;;;;5006641;28;20038;-73
2021/03/13 08:18:59;;;;;;;43.83;29.08;;;231.20;2252.80;;;;;;5009660;28;20512;-73
2021/03/13 08:21:24;;;;;;;45.33;31.85;;;231.00;2252.80;;;;;;5010749;28;20494;-72
2021/03/13 08:23:55;;;;;;;35.75;25.92;;;230.90;2252.80;;;;;;5010562;28;20025;-73
2021/03/13 08:26:44;;;;;;;35.25;23.73;;;230.90;2252.80;;;;;;5010208;28;20037;-72
2021/03/13 08:29:12;;;;;;;37.33;27.25;;;230.90;2252.80;;;;;;5010042;28;20037;-75
2021/03/13 08:31:40;;;;;;;34.88;24.08;;;231.00;2252.80;;;;;;5010432;28;20430;-73
2021/03/13 08:34:06;;;;;;;32.70;23.40;;;230.90;2252.80;;;;;;5010427;28;20107;-71
2021/03/13 08:36:39;;;;;;;36.38;24.60;;;231.10;2252.80;;;;;;5005696;28;20488;-72
2021/03/13 08:39:07;;;;;;;40.42;28.20;;;231.10;2252.80;;;;;;5002122;28;20101;-72
2021/03/13 08:44:27;;;;;;;48.22;32.10;;;231.20;2252.80;;;;;;5010314;28;20030;-73
2021/03/13 08:47:10;;;;;;;41.78;28.52;;;231.00;2252.80;;;;;;5009866;28;20080;-73
2021/03/13 08:49:37;;;;;;;48.97;30.83;;;230.90;2252.80;;;;;;5010820;28;20477;-72
2021/03/13 08:52:08;;;;;;;54.38;38.75;;;231.00;2252.80;;;;;;5013985;28;20025;-72
2021/03/13 08:54:37;;;;;;;61.40;42.78;;;231.00;2252.80;;;;;;5004627;28;20533;-72
2021/03/13 08:57:16;;;;;;;77.20;54.97;;;231.20;2252.80;;;;;;5013388;28;20022;-73
2021/03/13 08:59:51;;;;;;;60.03;40.30;;;231.30;2252.80;;;;;;5013657;28;20026;-72
2021/03/13 09:02:21;;;;;;;42.58;28.83;;;231.10;2252.80;;;;;;5009413;28;20554;-75
2021/03/13 09:04:51;;;;;;;29.67;22.13;;;256.10;2252.80;;;;;;5013749;28;20491;-75
2021/03/13 09:07:19;;;;;;;30.88;21.35;;;231.30;2252.80;;;;;;5002498;28;20029;-72
2021/03/13 09:09:45;;;;;;;26.63;19.40;;;231.20;2252.80;;;;;;5007796;28;20031;-72
2021/03/13 09:12:16;;;;;;;26.48;19.67;;;256.00;2252.80;;;;;;5010982;28;20140;-73
2021/03/13 09:14:44;;;;;;;28.88;19.95;;;231.30;2252.80;;;;;;5006257;28;20112;-72
2021/03/13 09:17:14;;;;;;;26.13;18.65;;;231.30;2252.80;;;;;;5012684;28;20022;-72
2021/03/13 09:19:41;;;;;;;30.75;21.50;;;231.20;2252.80;;;;;;5011995;28;20029;-74
2021/03/13 09:22:24;;;;;;;26.35;19.27;;;231.10;2252.80;;;;;;5013264;28;20033;-72
2021/03/13 09:25:03;;;;;;;29.25;20.35;;;231.20;2252.80;;;;;;5013436;28;20033;-73
2021/03/13 09:27:30;;;;;;;32.33;22.33;;;231.30;2252.80;;;;;;5012788;28;20021;-72
2021/03/13 09:29:58;;;;;;;34.67;23.23;;;256.10;2252.80;;;;;;5015713;28;20018;-72
2021/03/13 09:32:25;;;;;;;38.42;26.30;;;256.20;2252.80;;;;;;5012976;28;20037;-72
2021/03/13 09:34:53;;;;;;;48.70;34.30;;;256.20;2252.80;;;;;;5012535;28;20048;-73
2021/03/13 09:37:27;;;;;;;37.05;27.40;;;256.20;2252.80;;;;;;5012961;28;20104;-73
2021/03/13 09:40:02;;;;;;;34.00;24.42;;;256.60;2252.80;;;;;;5012411;28;20034;-73
2021/03/13 09:42:29;;;;;;;33.95;24.75;;;256.90;2252.80;;;;;;5013039;28;20061;-73
2021/03/13 09:44:58;;;;;;;32.28;23.52;;;256.80;2252.80;;;;;;5013285;28;20021;-72
2021/03/13 09:47:34;;;;;;;34.08;25.77;;;256.60;2252.80;;;;;;5004681;28;20522;-72
2021/03/13 09:50:23;;;;;;;39.92;29.33;;;256.90;2252.80;;;;;;5012148;28;20387;-73
2021/03/13 09:52:50;;;;;;;38.83;27.17;;;281.60;2278.40;;;;;;5004569;28;20376;-76
2021/03/13 09:55:16;;;;;;;38.60;27.23;;;281.60;2278.40;;;;;;5012537;28;20014;-73
2021/03/13 09:57:50;;;;;;;44.05;33.13;;;256.90;2252.80;;;;;;5012805;28;20029;-73
2021/03/13 10:00:17;;;;;;;36.13;26.77;;;256.80;2252.80;;;;;;5011577;28;20519;-73
2021/03/13 10:02:44;;;;;;;34.55;25.38;;;256.80;2252.80;;;;;;5013221;28;20076;-73
2021/03/13 10:05:15;;;;;;;32.05;23.23;;;281.70;2278.40;;;;;;5008606;28;20033;-73
2021/03/13 10:07:44;;;;;;;36.63;26.08;;;281.80;2278.40;;;;;;5012518;28;20026;-74
2021/03/13 10:10:13;;;;;;;38.42;26.90;;;281.80;2278.40;;;;;;5012575;28;20037;-73
2021/03/13 10:12:54;;;;;;;35.28;24.38;;;281.80;2278.40;;;;;;5005664;28;20037;-72
2021/03/13 10:15:27;;;;;;;31.88;22.77;;;282.00;2278.40;;;;;;5008527;28;20022;-73
2021/03/13 10:18:06;;;;;;;36.53;26.10;;;282.00;2278.40;;;;;;5012299;28;20026;-74
2021/03/13 10:20:52;;;;;;;33.00;24.08;;;282.10;2278.40;;;;;;5012158;28;20053;-73
2021/03/13 10:23:24;;;;;;;31.00;23.27;;;281.70;2278.40;;;;;;5012322;28;20026;-75
2021/03/13 10:25:57;;;;;;;34.80;25.42;;;281.70;2278.40;;;;;;5011547;28;20032;-73
2021/03/13 10:28:28;;;;;;;48.92;32.08;;;281.80;2278.40;;;;;;5011430;28;20026;-73
2021/03/13 10:31:04;;;;;;;;;;;282.00;2278.40;;;;;;5011870;28;20072;-72
2021/03/13 10:33:32;;;;;;;35.50;25.85;;;282.10;2278.40;;;;;;5011407;28;19981;-73
2021/03/13 10:35:58;;;;;;;32.58;23.42;;;282.30;2278.40;;;;;;5011736;28;20026;-72
2021/03/13 10:38:24;;;;;;;26.60;19.25;;;307.20;2304.00;;;;;;5010842;28;20442;-73
2021/03/13 10:40:51;;;;;;;26.40;19.63;;;282.50;2278.40;;;;;;5011117;28;20438;-73
2021/03/13 10:43:35;;;;;;;27.77;19.90;;;307.60;2304.00;;;;;;5011424;28;20034;-73
2021/03/13 10:46:26;;;;;;;32.60;23.45;;;307.90;2304.00;;;;;;5011240;28;20026;-73
2021/03/13 10:48:56;;;;;;;18.35;14.48;;;307.80;2304.00;;;;;;5010932;28;20049;-74
2021/03/13 10:51:23;;;;;;;18.95;14.95;;;333.10;2278.40;;;;;;5010177;28;20414;-74
2021/03/13 10:53:49;;;;;;;20.58;15.75;;;409.60;1971.20;;;;;;5011259;28;20030;-74
2021/03/13 10:56:16;;;;;;;21.73;17.17;;;435.20;1792.00;;;;;;5010749;28;20021;-74
2021/03/13 10:58:50;;;;;;;26.40;20.30;;;436.10;1689.60;;;;;;5010935;28;20026;-73
2021/03/13 11:01:17;;;;;;;25.63;20.83;;;435.80;1689.60;;;;;;5010663;28;20506;-73
2021/03/13 11:03:45;;;;;;;23.23;18.02;;;436.00;1689.60;;;;;;5011432;28;20501;-76
2021/03/13 11:06:12;;;;;;;20.98;15.27;;;461.40;1638.40;;;;;;5009420;28;20029;-73
2021/03/13 11:08:38;;;;;;;19.45;15.93;;;512.70;1433.60;;;;;;5008617;28;20188;-76
2021/03/13 11:11:04;;;;;;;57.13;34.17;;;691.60;1100.80;;;;;;5008844;28;20101;-76
2021/03/13 11:13:30;;;;;;;35.85;25.40;;;742.60;1024.00;;;;;;5008783;28;20457;-76
2021/03/13 11:15:56;;;;;;;26.88;21.35;;;819.30;896.00;;;;;;5005998;28;20034;-76
2021/03/13 11:18:23;;;;;;;24.00;20.58;;;896.50;819.20;;;;;;5009567;28;20050;-75
2021/03/13 11:20:49;;;;;;;23.42;20.27;;;896.50;793.60;;;;;;5010296;28;20051;-76
2021/03/13 11:23:15;;;;;;;19.70;16.85;;;947.40;768.00;;;;;;5007633;28;20017;-75
2021/03/13 11:25:41;;;;;;;21.08;18.88;;;922.50;768.00;;;;;;5010723;28;20467;-77
2021/03/13 11:28:07;;;;;;;20.23;17.65;;;973.20;742.40;;;;;;5009595;28;20030;-78
2021/03/13 11:30:34;;;;;;;17.95;15.75;;;947.80;742.40;;;;;;5010170;28;20023;-77
2021/03/13 11:32:59;;;;;;;17.73;15.88;;;922.40;768.00;;;;;;5010483;28;20415;-75
2021/03/13 11:35:26;;;;;;;19.38;15.57;;;922.50;768.00;;;;;;5009923;28;20022;-75
2021/03/13 11:37:52;;;;;;;16.00;14.25;;;896.60;768.00;;;;;;5007549;28;20080;-75
2021/03/13 11:40:21;;;;;;;18.27;15.90;;;819.60;844.80;;;;;;5009578;28;20030;-74
2021/03/13 11:42:47;;;;;;;25.55;21.52;;;640.40;1049.60;;;;;;5010622;28;20022;-76
2021/03/13 11:45:14;;;;;;;19.13;16.20;;;589.20;1177.60;;;;;;5004275;28;20546;-77
2021/03/13 11:47:41;;;;;;;24.25;20.15;;;768.40;921.60;;;;;;5015509;28;20113;-74
2021/03/13 11:50:09;;;;;;;22.42;18.80;;;896.30;793.60;;;;;;5009783;28;20026;-74
2021/03/13 11:52:36;;;;;;;12.65;10.20;;;973.70;716.80;;;;;;5009838;28;20467;-74
2021/03/13 11:55:04;;;;;;;11.30;9.55;;;922.50;716.80;;;;;;5009969;28;20042;-74
2021/03/13 11:57:30;;;;;;;7.88;6.53;;;743.20;870.40;;;;;;5010050;28;20029;-74
2021/03/13 11:59:56;;;;;;;9.15;7.75;;;691.30;921.60;;;;;;5008900;28;20018;-73
2021/03/13 12:02:22;;;;;;;9.75;8.32;;;589.40;1100.80;;;;;;5009522;28;20032;-72
2021/03/13 12:04:48;;;;;;;8.00;6.68;;;563.20;1203.20;;;;;;5010097;28;20176;-74
2021/03/13 12:07:14;;;;;;;6.25;4.90;;;487.30;1254.40;;;;;;5009897;28;20026;-74
2021/03/13 12:09:40;;;;;;;8.48;6.68;;;486.80;1254.40;;;;;;5009807;28;20430;-73
2021/03/13 12:12:07;;;;;;;10.07;9.07;;;486.50;1331.20;;;;;;5009698;28;20400;-74
2021/03/13 12:14:34;;;;;;;11.52;7.93;;;461.50;1382.40;;;;;;5009314;28;20025;-77